createdAt,value
2018-11-10T00:00:19.478Z,95402.92
2018-11-10T00:02:49.377Z,95399.31
2018-11-10T00:05:19.553Z,95400.79
2018-11-10T00:07:49.068Z,95394.70
2018-11-10T00:10:18.972Z,95402.00
2018-11-10T00:12:48.663Z,95396.90
2018-11-10T00:15:17.889Z,95400.20
2018-11-10T00:17:47.201Z,95403.23
2018-11-10T00:20:16.477Z,95399.44
2018-11-10T00:22:45.926Z,95401.16
2018-11-10T00:25:15.537Z,95397.42
2018-11-10T00:27:45.889Z,95403.86
2018-11-10T00:30:16.888Z,95403.61
2018-11-10T00:32:46.493Z,95397.77
2018-11-10T00:35:15.772Z,95400.55
2018-11-10T00:37:45.146Z,95399.88
2018-11-10T00:40:15.474Z,95397.17
2018-11-10T00:42:45.106Z,95407.15
2018-11-10T00:45:14.594Z,95402.67
2018-11-10T00:47:44.043Z,95402.36
2018-11-10T00:50:13.229Z,95400.41
2018-11-10T00:52:42.860Z,95395.58
2018-11-10T00:55:12.098Z,95398.95
2018-11-10T00:57:41.302Z,95393.52
2018-11-10T01:00:12.490Z,95403.16
2018-11-10T01:02:42.632Z,95401.16
2018-11-10T01:05:11.897Z,95397.91
2018-11-10T01:07:41.365Z,95401.56
2018-11-10T01:10:12.168Z,95400.97
2018-11-10T01:12:41.536Z,95393.19
2018-11-10T01:15:14.029Z,95394.17
2018-11-10T01:17:43.819Z,95380.77
2018-11-10T01:20:13.630Z,95386.59
2018-11-10T01:22:43.206Z,95386.05
2018-11-10T01:25:12.503Z,95395.75
2018-11-10T01:27:41.610Z,95384.89
2018-11-10T01:30:13.741Z,95384.89
2018-11-10T01:32:43.814Z,95384.75
2018-11-10T01:35:13.339Z,95385.51
2018-11-10T01:37:42.642Z,95385.42
2018-11-10T01:40:13.456Z,95383.59
2018-11-10T01:42:43.033Z,95391.79
2018-11-10T01:45:14.994Z,95389.70
2018-11-10T01:47:44.777Z,95384.04
2018-11-10T01:50:13.964Z,95393.44
2018-11-10T01:52:43.454Z,95391.09
2018-11-10T01:55:13.159Z,95385.10
2018-11-10T01:57:43.140Z,95382.55
2018-11-10T02:00:14.898Z,95380.52
2018-11-10T02:02:44.707Z,95378.44
2018-11-10T02:05:14.003Z,95376.73
2018-11-10T02:07:43.431Z,95379.50
2018-11-10T02:10:13.006Z,95375.82
2018-11-10T02:12:42.482Z,95376.45
2018-11-10T02:15:15.082Z,95371.50
2018-11-10T02:17:44.141Z,95377.47
2018-11-10T02:20:14.385Z,95372.90
2018-11-10T02:22:44.110Z,95378.38
2018-11-10T02:25:13.714Z,95383.08
2018-11-10T02:27:43.297Z,95379.80
2018-11-10T02:30:12.876Z,95376.78
2018-11-10T02:32:42.354Z,95381.44
2018-11-10T02:35:12.038Z,95386.68
2018-11-10T02:37:41.881Z,95386.14
2018-11-10T02:40:13.117Z,95384.83
2018-11-10T02:42:42.976Z,95385.18
2018-11-10T02:45:13.570Z,95386.91
2018-11-10T02:47:43.628Z,95384.98
2018-11-10T02:50:12.753Z,95381.63
2018-11-10T02:52:41.976Z,95386.28
2018-11-10T02:55:11.838Z,95392.69
2018-11-10T02:57:41.470Z,95391.76
2018-11-10T03:00:12.310Z,95389.67
2018-11-10T03:02:41.726Z,95392.24
2018-11-10T03:05:11.259Z,95390.70
2018-11-10T03:07:40.654Z,95392.63
2018-11-10T03:10:11.365Z,95400.61
2018-11-10T03:12:41.037Z,95400.42
2018-11-10T03:15:11.095Z,95405.31
2018-11-10T03:17:40.454Z,95411.28
2018-11-10T03:20:12.062Z,95396.75
2018-11-10T03:22:41.246Z,95402.55
2018-11-10T03:25:10.883Z,95400.42
2018-11-10T03:27:40.198Z,95407.60
2018-11-10T03:30:09.687Z,95403.58
2018-11-10T03:32:39.314Z,95402.99
2018-11-10T03:35:09.361Z,95396.89
2018-11-10T03:37:38.802Z,95400.19
2018-11-10T03:40:09.221Z,95397.37
2018-11-10T03:42:38.997Z,95398.39
2018-11-10T03:45:09.745Z,95396.55
2018-11-10T03:47:39.297Z,95392.00
2018-11-10T03:50:09.210Z,95390.93
2018-11-10T03:52:38.717Z,95401.37
2018-11-10T03:55:08.618Z,95396.30
2018-11-10T03:57:37.862Z,95395.71
2018-11-10T04:00:10.314Z,95393.44
2018-11-10T04:02:39.790Z,95396.11
2018-11-10T04:05:09.519Z,95397.50
2018-11-10T04:07:39.060Z,95399.20
2018-11-10T04:10:08.344Z,95393.98
2018-11-10T04:12:37.659Z,95398.32
2018-11-10T04:15:07.177Z,95399.63
2018-11-10T04:17:36.635Z,95399.23
2018-11-10T04:20:06.997Z,95398.42
2018-11-10T04:22:37.418Z,95401.03
2018-11-10T04:25:10.680Z,95399.34
2018-11-10T04:27:40.175Z,95404.25
2018-11-10T04:30:10.351Z,95401.23
2018-11-10T04:32:39.758Z,95401.62
2018-11-10T04:35:09.516Z,95400.08
2018-11-10T04:37:38.725Z,95396.59
2018-11-10T04:40:08.764Z,95395.14
2018-11-10T04:42:38.190Z,95402.03
2018-11-10T04:45:08.417Z,95400.02
2018-11-10T04:47:37.810Z,95400.98
2018-11-10T04:50:08.330Z,95401.33
2018-11-10T04:52:37.533Z,95396.80
2018-11-10T04:55:07.154Z,95402.92
2018-11-10T04:57:36.730Z,95403.20
2018-11-10T05:00:07.706Z,95405.29
2018-11-10T05:02:37.118Z,95403.74
2018-11-10T05:05:06.947Z,95403.01
2018-11-10T05:07:36.258Z,95392.08
2018-11-10T05:10:06.139Z,95404.28
2018-11-10T05:12:35.686Z,95399.13
2018-11-10T05:15:05.402Z,95406.53
2018-11-10T05:17:34.647Z,95410.80
2018-11-10T05:20:03.993Z,95416.56
2018-11-10T05:22:33.262Z,95412.46
2018-11-10T05:25:02.685Z,95407.58
2018-11-10T05:27:32.146Z,95409.51
2018-11-10T05:30:01.468Z,95411.71
2018-11-10T05:32:30.758Z,95411.73
2018-11-10T05:35:00.207Z,95405.28
2018-11-10T05:37:29.472Z,95408.85
2018-11-10T05:39:58.762Z,95407.00
2018-11-10T05:42:27.950Z,95400.62
2018-11-10T05:44:57.129Z,95402.92
2018-11-10T05:47:26.342Z,95399.72
2018-11-10T05:49:55.683Z,95404.66
2018-11-10T05:52:24.975Z,95397.87
2018-11-10T05:54:54.084Z,95403.94
2018-11-10T05:57:23.689Z,95408.03
2018-11-10T05:59:52.959Z,95405.08
2018-11-10T06:02:23.124Z,95405.41
2018-11-10T06:04:52.851Z,95405.33
2018-11-10T06:07:22.230Z,95412.36
2018-11-10T06:09:51.863Z,95406.23
2018-11-10T06:12:21.227Z,95418.12
2018-11-10T06:14:50.473Z,95418.23
2018-11-10T06:17:19.602Z,95417.48
2018-11-10T06:19:48.774Z,95410.99
2018-11-10T06:22:18.087Z,95415.49
2018-11-10T06:24:47.268Z,95424.22
2018-11-10T06:27:16.402Z,95418.91
2018-11-10T06:29:45.639Z,95420.23
2018-11-10T06:32:14.969Z,95422.10
2018-11-10T06:34:44.549Z,95426.90
2018-11-10T06:37:13.809Z,95423.27
2018-11-10T06:39:43.151Z,95433.20
2018-11-10T06:42:12.660Z,95429.55
2018-11-10T06:44:41.873Z,95430.31
2018-11-10T06:47:11.287Z,95429.14
2018-11-10T06:49:40.510Z,95434.81
2018-11-10T06:52:09.618Z,95441.71
2018-11-10T06:54:38.774Z,95440.05
2018-11-10T06:57:07.946Z,95434.76
2018-11-10T06:59:37.291Z,95435.67
2018-11-10T07:02:07.130Z,95434.45
2018-11-10T07:04:36.598Z,95437.36
2018-11-10T07:07:05.842Z,95433.25
2018-11-10T07:09:35.140Z,95434.14
2018-11-10T07:12:04.422Z,95432.80
2018-11-10T07:14:33.706Z,95432.34
2018-11-10T07:17:02.932Z,95430.19
2018-11-10T07:19:32.303Z,95428.03
2018-11-10T07:22:01.566Z,95425.93
2018-11-10T07:24:30.911Z,95434.78
2018-11-10T07:27:00.442Z,95431.27
2018-11-10T07:29:29.806Z,95430.98
2018-11-10T07:31:59.125Z,95427.87
2018-11-10T07:34:28.084Z,95426.34
2018-11-10T07:36:57.402Z,95420.08
2018-11-10T07:39:26.554Z,95412.30
2018-11-10T07:41:55.773Z,95411.89
2018-11-10T07:44:25.250Z,95413.67
2018-11-10T07:46:54.476Z,95420.30
2018-11-10T07:49:23.974Z,95415.36
2018-11-10T07:51:53.145Z,95413.51
2018-11-10T07:54:22.444Z,95413.73
2018-11-10T07:56:51.515Z,95413.45
2018-11-10T07:59:20.707Z,95416.48
2018-11-10T08:01:50.074Z,95418.61
2018-11-10T08:04:19.444Z,95412.76
2018-11-10T08:06:48.797Z,95414.33
2018-11-10T08:09:18.074Z,95413.05
2018-11-10T08:11:47.404Z,95409.91
2018-11-10T08:14:16.929Z,95409.62
2018-11-10T08:16:46.290Z,95405.77
2018-11-10T08:19:15.388Z,95413.28
2018-11-10T08:21:44.728Z,95411.66
2018-11-10T08:24:13.988Z,95415.58
2018-11-10T08:26:43.380Z,95411.95
2018-11-10T08:29:12.504Z,95413.22
2018-11-10T08:31:41.642Z,95404.91
2018-11-10T08:34:10.894Z,95410.88
2018-11-10T08:36:40.055Z,95405.80
2018-11-10T08:39:10.834Z,95405.50
2018-11-10T08:41:40.023Z,95408.61
2018-11-10T08:44:09.531Z,95410.95
2018-11-10T08:46:38.922Z,95405.63
2018-11-10T08:49:08.144Z,95401.55
2018-11-10T08:51:37.494Z,95400.48
2018-11-10T08:54:08.569Z,95404.40
2018-11-10T08:56:38.008Z,95390.36
2018-11-10T08:59:07.380Z,95399.91
2018-11-10T09:01:36.514Z,95396.73
2018-11-10T09:04:06.228Z,95389.30
2018-11-10T09:06:35.630Z,95394.42
2018-11-10T09:09:06.674Z,95394.53
2018-11-10T09:11:36.090Z,95386.03
2018-11-10T09:14:05.515Z,95394.30
2018-11-10T09:16:34.756Z,95379.72
2018-11-10T09:19:04.024Z,95380.99
2018-11-10T09:21:33.414Z,95374.95
2018-11-10T09:24:02.770Z,95376.05
2018-11-10T09:26:32.003Z,95372.83
2018-11-10T09:29:01.309Z,95365.51
2018-11-10T09:31:30.598Z,95373.89
2018-11-10T09:34:00.166Z,95367.59
2018-11-10T09:36:30.518Z,95360.05
2018-11-10T09:38:59.811Z,95360.07
2018-11-10T09:41:29.290Z,95362.95
2018-11-10T09:43:58.445Z,95353.20
2018-11-10T09:46:28.113Z,95353.20
2018-11-10T09:48:57.303Z,95348.17
2018-11-10T09:51:26.619Z,95348.05
2018-11-10T09:53:55.801Z,95345.28
2018-11-10T09:56:25.082Z,95354.61
2018-11-10T09:58:54.508Z,95342.38
2018-11-10T10:01:23.890Z,95337.47
2018-11-10T10:03:53.187Z,95341.83
2018-11-10T10:06:22.288Z,95331.66
2018-11-10T10:08:51.610Z,95329.83
2018-11-10T10:11:20.898Z,95322.56
2018-11-10T10:13:50.326Z,95326.27
2018-11-10T10:16:20.066Z,95316.33
2018-11-10T10:18:49.191Z,95312.14
2018-11-10T10:21:18.685Z,95312.49
2018-11-10T10:23:48.092Z,95307.78
2018-11-10T10:26:17.408Z,95306.36
2018-11-10T10:28:46.703Z,95309.38
2018-11-10T10:31:16.179Z,95292.20
2018-11-10T10:33:45.384Z,95294.67
2018-11-10T10:36:14.562Z,95297.40
2018-11-10T10:38:43.791Z,95292.16
2018-11-10T10:41:12.995Z,95294.22
2018-11-10T10:43:42.299Z,95289.20
2018-11-10T10:46:11.468Z,95282.33
2018-11-10T10:48:41.067Z,95276.39
2018-11-10T10:51:10.618Z,95277.87
2018-11-10T10:53:39.895Z,95271.95
2018-11-10T10:56:09.261Z,95269.50
2018-11-10T10:58:38.515Z,95269.84
2018-11-10T11:01:12.876Z,95263.95
2018-11-10T11:05:49.433Z,95263.74
2018-11-10T11:08:18.514Z,95256.62
2018-11-10T11:10:47.614Z,95252.27
2018-11-10T11:13:17.318Z,95250.66
2018-11-10T11:15:46.696Z,95242.93
2018-11-10T11:18:16.013Z,95238.03
2018-11-10T11:20:45.233Z,95238.52
2018-11-10T11:23:14.596Z,95232.86
2018-11-10T11:25:44.074Z,95226.96
2018-11-10T11:28:13.344Z,95225.11
2018-11-10T11:30:42.499Z,95223.05
2018-11-10T11:33:11.730Z,95224.86
2018-11-10T11:35:40.834Z,95227.18
2018-11-10T11:38:10.305Z,95224.43
2018-11-10T11:40:39.483Z,95223.92
2018-11-10T11:43:08.745Z,95222.31
2018-11-10T11:45:37.985Z,95218.05
2018-11-10T11:48:07.395Z,95215.22
2018-11-10T11:50:36.775Z,95213.13
2018-11-10T11:53:06.411Z,95214.70
2018-11-10T11:55:35.665Z,95189.22
2018-11-10T11:58:05.187Z,95202.22
2018-11-10T12:00:34.370Z,95203.86
2018-11-10T12:03:03.917Z,95196.35
2018-11-10T12:05:32.934Z,95195.84
2018-11-10T12:08:02.240Z,95191.89
2018-11-10T12:10:31.567Z,95190.52
2018-11-10T12:13:00.842Z,95191.01
2018-11-10T12:15:30.012Z,95190.63
2018-11-10T12:17:59.064Z,95191.45
2018-11-10T12:20:28.247Z,95189.20
2018-11-10T12:22:57.431Z,95186.26
2018-11-10T12:25:26.534Z,95185.73
2018-11-10T12:27:56.123Z,95188.80
2018-11-10T12:30:25.319Z,95183.13
2018-11-10T12:32:54.438Z,95181.95
2018-11-10T12:35:23.824Z,95180.09
2018-11-10T12:37:53.151Z,95186.28
2018-11-10T12:40:22.894Z,95187.86
2018-11-10T12:42:52.397Z,95186.88
2018-11-10T12:45:21.574Z,95185.09
2018-11-10T12:47:50.659Z,95182.36
2018-11-10T12:50:19.894Z,95175.16
2018-11-10T12:52:49.510Z,95181.76
2018-11-10T12:55:18.846Z,95173.12
2018-11-10T12:57:48.250Z,95178.53
2018-11-10T13:00:18.095Z,95169.59
2018-11-10T13:02:47.321Z,95166.00
2018-11-10T13:05:16.845Z,95172.76
2018-11-10T13:07:47.135Z,95177.45
2018-11-10T13:10:16.353Z,95170.00
2018-11-10T13:12:45.822Z,95174.28
2018-11-10T13:15:15.159Z,95177.11
2018-11-10T13:17:44.481Z,95169.62
2018-11-10T13:20:14.866Z,95170.35
2018-11-10T13:22:44.196Z,95163.34
2018-11-10T13:25:14.290Z,95168.30
2018-11-10T13:27:43.514Z,95171.47
2018-11-10T13:30:14.166Z,95171.00
2018-11-10T13:32:43.411Z,95169.34
2018-11-10T13:35:13.003Z,95168.45
2018-11-10T13:37:42.229Z,95169.38
2018-11-10T13:40:12.230Z,95169.59
2018-11-10T13:42:41.362Z,95165.24
2018-11-10T13:45:12.438Z,95158.28
2018-11-10T13:47:41.858Z,95159.45
2018-11-10T13:50:11.913Z,95158.91
2018-11-10T13:52:42.326Z,95161.75
2018-11-10T13:55:11.750Z,95154.55
2018-11-10T13:57:41.195Z,95155.17
2018-11-10T14:00:13.973Z,95157.17
2018-11-10T14:02:43.382Z,95163.72
2018-11-10T14:05:13.202Z,95160.22
2018-11-10T14:07:42.555Z,95162.84
2018-11-10T14:10:13.529Z,95154.77
2018-11-10T14:12:43.568Z,95154.14
2018-11-10T14:15:12.785Z,95153.02
2018-11-10T14:17:42.759Z,95151.41
2018-11-10T14:20:13.817Z,95156.05
2018-11-10T14:22:43.215Z,95159.52
2018-11-10T14:25:13.795Z,95158.23
2018-11-10T14:27:43.628Z,95156.45
2018-11-10T14:30:15.066Z,95157.27
2018-11-10T14:32:44.705Z,95163.09
2018-11-10T14:35:14.242Z,95155.98
2018-11-10T14:37:43.610Z,95161.23
2018-11-10T14:40:14.200Z,95167.22
2018-11-10T14:42:43.860Z,95168.53
2018-11-10T14:45:14.260Z,95163.77
2018-11-10T14:47:44.380Z,95160.52
2018-11-10T14:50:14.490Z,95169.03
2018-11-10T14:52:43.951Z,95172.41
2018-11-10T14:55:13.674Z,95170.35
2018-11-10T14:57:43.152Z,95166.36
2018-11-10T15:00:16.489Z,95165.55
2018-11-10T15:02:45.616Z,95166.09
2018-11-10T15:05:15.122Z,95166.50
2018-11-10T15:07:44.754Z,95170.41
2018-11-10T15:10:15.309Z,95171.41
2018-11-10T15:12:45.186Z,95179.25
2018-11-10T15:15:15.520Z,95175.15
2018-11-10T15:17:46.425Z,95175.35
2018-11-10T15:20:17.015Z,95178.63
2018-11-10T15:22:46.096Z,95181.40
2018-11-10T15:25:16.967Z,95185.87
2018-11-10T15:27:46.238Z,95171.55
2018-11-10T15:30:17.997Z,95180.89
2018-11-10T15:32:47.806Z,95184.84
2018-11-10T15:35:18.318Z,95181.67
2018-11-10T15:37:48.585Z,95177.11
2018-11-10T15:40:18.362Z,95178.32
2018-11-10T15:42:47.714Z,95184.16
2018-11-10T15:45:17.953Z,95187.08
2018-11-10T15:47:47.426Z,95184.95
2018-11-10T15:50:17.499Z,95188.64
2018-11-10T15:52:46.890Z,95183.18
2018-11-10T15:55:16.041Z,95188.80
2018-11-10T15:57:45.107Z,95190.50
2018-11-10T16:00:16.664Z,95190.22
2018-11-10T16:02:46.085Z,95194.19
2018-11-10T16:05:15.827Z,95202.91
2018-11-10T16:07:45.303Z,95192.69
2018-11-10T16:10:14.740Z,95196.66
2018-11-10T16:12:44.136Z,95200.80
2018-11-10T16:15:15.540Z,95196.97
2018-11-10T16:17:45.175Z,95200.80
2018-11-10T16:20:16.999Z,95198.22
2018-11-10T16:22:47.568Z,95196.52
2018-11-10T16:25:17.272Z,95204.00
2018-11-10T16:27:46.829Z,95200.35
2018-11-10T16:30:17.285Z,95209.50
2018-11-10T16:32:46.603Z,95208.89
2018-11-10T16:35:15.870Z,95206.30
2018-11-10T16:37:45.059Z,95212.39
2018-11-10T16:40:16.334Z,95209.04
2018-11-10T16:42:46.306Z,95212.11
2018-11-10T16:45:16.115Z,95214.84
2018-11-10T16:47:45.729Z,95221.69
2018-11-10T16:50:14.899Z,95223.08
2018-11-10T16:52:44.398Z,95225.98
2018-11-10T16:55:13.872Z,95225.19
2018-11-10T16:57:43.157Z,95229.34
2018-11-10T17:00:15.099Z,95225.81
2018-11-10T17:02:44.461Z,95227.48
2018-11-10T17:05:13.575Z,95229.78
2018-11-10T17:07:42.844Z,95228.41
2018-11-10T17:10:14.494Z,95229.02
2018-11-10T17:12:44.055Z,95232.38
2018-11-10T17:15:13.354Z,95238.78
2018-11-10T17:17:42.586Z,95241.52
2018-11-10T17:20:13.795Z,95245.17
2018-11-10T17:22:43.142Z,95249.11
2018-11-10T17:25:13.115Z,95246.52
2018-11-10T17:27:42.785Z,95246.20
2018-11-10T17:30:14.617Z,95250.63
2018-11-10T17:32:44.170Z,95253.16
2018-11-10T17:35:13.624Z,95255.44
2018-11-10T17:37:42.933Z,95255.56
2018-11-10T17:40:13.009Z,95261.34
2018-11-10T17:42:42.346Z,95259.48
2018-11-10T17:45:13.679Z,95259.77
2018-11-10T17:47:43.325Z,95262.48
2018-11-10T17:50:14.402Z,95267.34
2018-11-10T17:52:44.581Z,95269.13
2018-11-10T17:55:14.804Z,95267.13
2018-11-10T17:57:44.686Z,95269.80
2018-11-10T18:00:14.125Z,95269.94
2018-11-10T18:02:43.211Z,95272.64
2018-11-10T18:05:13.855Z,95273.82
2018-11-10T18:07:43.205Z,95275.66
2018-11-10T18:10:14.054Z,95275.41
2018-11-10T18:12:44.008Z,95270.54
2018-11-10T18:15:13.659Z,95279.02
2018-11-10T18:17:43.226Z,95279.41
2018-11-10T18:20:14.055Z,95271.48
2018-11-10T18:22:43.678Z,95281.50
2018-11-10T18:25:13.120Z,95282.23
2018-11-10T18:27:42.345Z,95283.90
2018-11-10T18:30:13.495Z,95290.39
2018-11-10T18:32:42.962Z,95289.77
2018-11-10T18:35:12.646Z,95291.88
2018-11-10T18:37:42.346Z,95287.73
2018-11-10T18:40:11.745Z,95291.36
2018-11-10T18:42:41.031Z,95293.34
2018-11-10T18:45:11.133Z,95294.97
2018-11-10T18:47:41.034Z,95293.58
2018-11-10T18:50:13.632Z,95284.27
2018-11-10T18:52:43.137Z,95296.70
2018-11-10T18:55:13.006Z,95297.47
2018-11-10T18:57:42.518Z,95294.04
2018-11-10T19:00:13.778Z,95303.23
2018-11-10T19:02:43.031Z,95306.23
2018-11-10T19:05:13.689Z,95301.48
2018-11-10T19:07:43.056Z,95306.81
2018-11-10T19:10:13.865Z,95308.90
2018-11-10T19:12:43.249Z,95307.95
2018-11-10T19:15:16.047Z,95312.18
2018-11-10T19:17:45.746Z,95313.06
2018-11-10T19:20:15.442Z,95319.31
2018-11-10T19:22:44.683Z,95319.56
2018-11-10T19:25:14.731Z,95328.34
2018-11-10T19:27:44.119Z,95334.21
2018-11-10T19:30:15.138Z,95332.25
2018-11-10T19:32:44.854Z,95335.41
2018-11-10T19:35:14.597Z,95335.38
2018-11-10T19:37:44.019Z,95336.09
2018-11-10T19:40:13.490Z,95336.30
2018-11-10T19:42:43.669Z,95335.66
2018-11-10T19:45:13.133Z,95340.96
2018-11-10T19:47:43.480Z,95340.50
2018-11-10T19:50:13.289Z,95344.89
2018-11-10T19:52:42.826Z,95344.03
2018-11-10T19:55:14.306Z,95351.05
2018-11-10T19:57:43.886Z,95352.28
2018-11-10T20:00:15.963Z,95350.14
2018-11-10T20:02:45.240Z,95350.84
2018-11-10T20:05:14.513Z,95346.55
2018-11-10T20:07:43.853Z,95350.83
2018-11-10T20:10:13.551Z,95349.14
2018-11-10T20:12:43.678Z,95352.43
2018-11-10T20:15:14.220Z,95351.91
2018-11-10T20:17:43.963Z,95358.06
2018-11-10T20:20:14.328Z,95357.40
2018-11-10T20:22:43.810Z,95363.06
2018-11-10T20:25:14.170Z,95363.44
2018-11-10T20:27:43.549Z,95367.95
2018-11-10T20:30:16.268Z,95368.42
2018-11-10T20:32:45.477Z,95366.03
2018-11-10T20:35:14.968Z,95364.77
2018-11-10T20:37:44.811Z,95370.49
2018-11-10T20:40:14.741Z,95375.26
2018-11-10T20:42:44.230Z,95373.31
2018-11-10T20:45:15.285Z,95377.41
2018-11-10T20:47:44.471Z,95380.24
2018-11-10T20:50:14.296Z,95378.80
2018-11-10T20:52:43.717Z,95373.52
2018-11-10T20:55:13.374Z,95374.56
2018-11-10T20:57:42.580Z,95380.70
2018-11-10T21:00:14.264Z,95377.88
2018-11-10T21:02:43.973Z,95377.70
2018-11-10T21:05:13.686Z,95378.56
2018-11-10T21:07:43.022Z,95384.44
2018-11-10T21:10:14.159Z,95380.43
2018-11-10T21:12:44.104Z,95380.19
2018-11-10T21:15:13.530Z,95380.88
2018-11-10T21:17:43.175Z,95382.05
2018-11-10T21:20:12.968Z,95389.64
2018-11-10T21:22:42.631Z,95388.45
2018-11-10T21:25:13.583Z,95397.49
2018-11-10T21:27:43.175Z,95398.76
2018-11-10T21:30:13.815Z,95399.69
2018-11-10T21:32:43.124Z,95400.62
2018-11-10T21:35:12.629Z,95401.64
2018-11-10T21:37:41.939Z,95404.67
2018-11-10T21:40:13.640Z,95407.33
2018-11-10T21:42:43.358Z,95405.79
2018-11-10T21:45:13.350Z,95409.19
2018-11-10T21:47:42.614Z,95414.17
2018-11-10T21:50:14.175Z,95411.52
2018-11-10T21:52:44.334Z,95417.20
2018-11-10T21:55:14.739Z,95417.53
2018-11-10T21:57:44.930Z,95414.48
2018-11-10T22:00:15.799Z,95419.74
2018-11-10T22:02:45.511Z,95420.41
2018-11-10T22:05:14.590Z,95424.57
2018-11-10T22:07:43.721Z,95423.69
2018-11-10T22:10:14.429Z,95421.22
2018-11-10T22:12:44.041Z,95420.86
2018-11-10T22:15:14.709Z,95424.25
2018-11-10T22:17:44.825Z,95420.27
2018-11-10T22:20:15.126Z,95421.19
2018-11-10T22:22:44.405Z,95416.73
2018-11-10T22:25:14.159Z,95419.05
2018-11-10T22:27:44.706Z,95421.26
2018-11-10T22:30:15.227Z,95418.24
2018-11-10T22:32:45.048Z,95422.40
2018-11-10T22:35:14.470Z,95423.42
2018-11-10T22:37:43.675Z,95424.60
2018-11-10T22:40:14.397Z,95423.13
2018-11-10T22:42:44.124Z,95426.95
2018-11-10T22:45:14.750Z,95424.83
2018-11-10T22:47:44.090Z,95432.54
2018-11-10T22:50:15.515Z,95429.68
2018-11-10T22:52:45.021Z,95424.31
2018-11-10T22:55:14.368Z,95428.27
2018-11-10T22:57:43.594Z,95431.95
2018-11-10T23:00:17.092Z,95426.17
2018-11-10T23:02:48.121Z,95435.77
2018-11-10T23:05:17.935Z,95431.72
2018-11-10T23:07:47.165Z,95433.73
2018-11-10T23:10:16.823Z,95430.73
2018-11-10T23:12:46.974Z,95422.16
2018-11-10T23:15:16.206Z,95427.19
2018-11-10T23:17:45.510Z,95424.06
2018-11-10T23:20:16.057Z,95428.02
2018-11-10T23:22:45.372Z,95431.06
2018-11-10T23:25:15.893Z,95435.14
2018-11-10T23:27:45.217Z,95434.58
2018-11-10T23:30:16.467Z,95441.43
2018-11-10T23:32:45.927Z,95440.36
2018-11-10T23:35:15.442Z,95441.22
2018-11-10T23:37:44.742Z,95445.23
2018-11-10T23:40:15.107Z,95445.59
2018-11-10T23:42:44.574Z,95449.33
2018-11-10T23:45:14.450Z,95454.41
2018-11-10T23:47:43.751Z,95448.68
2018-11-10T23:50:15.449Z,95442.58
2018-11-10T23:52:44.830Z,95452.91
2018-11-10T23:55:14.686Z,95448.06
2018-11-10T23:57:43.939Z,95445.45
